Time;durP1;ratioP1;P1;durP2;ratioP2;P2;SDS_P1;SDS_P2;PMS_P1;PMS_P2;Temp;Humidity;BMP_temperature;BMP_pressure;BME280_temperature;BME280_humidity;BME280_pressure;Samples;Min_cycle;Max_cycle;Signal;HPM_P1;HPM_P2
2023/09/14 00:02:55;;;;;;;2.72;1.17;;;;;;;19.10;58.87;100628.66;10338023;28;20065;-65
2023/09/14 00:07:56;;;;;;;2.63;1.15;;;;;;;19.36;59.01;100661.66;10338056;28;20069;-66
2023/09/14 00:12:58;;;;;;;2.33;0.80;;;;;;;19.29;58.69;100666.06;10340606;28;20054;-65
2023/09/14 00:18:00;;;;;;;2.78;1.35;;;;;;;19.21;59.92;100647.16;10342335;28;20172;-65
2023/09/14 00:23:03;;;;;;;3.13;1.20;;;;;;;19.24;60.07;100665.72;10344446;28;20497;-66
2023/09/14 00:28:05;;;;;;;1.60;1.13;;;;;;;19.07;60.85;100663.03;10343742;28;22884;-66
2023/09/14 00:33:08;;;;;;;3.38;1.42;;;;;;;19.01;60.24;100663.72;10343541;28;20050;-66
2023/09/14 00:38:09;;;;;;;3.65;1.48;;;;;;;19.00;59.58;100662.00;10334013;28;20057;-65
2023/09/14 00:43:11;;;;;;;3.47;1.17;;;;;;;19.03;59.78;100667.06;10345944;28;20548;-66
2023/09/14 00:48:13;;;;;;;2.72;1.02;;;;;;;19.03;59.93;100666.22;10348329;28;20057;-64
2023/09/14 00:53:16;;;;;;;2.97;1.02;;;;;;;18.95;60.43;100669.78;10350694;28;20045;-66
2023/09/14 00:58:18;;;;;;;4.13;1.43;;;;;;;18.79;61.18;100667.03;10347476;28;20053;-65
2023/09/14 01:03:20;;;;;;;1.90;1.27;;;;;;;18.86;60.33;100670.78;10343937;28;20103;-64
2023/09/14 01:08:22;;;;;;;3.65;1.65;;;;;;;18.70;61.30;100660.78;10351483;28;20053;-65
2023/09/14 01:13:40;;;;;;;1.70;1.00;;;;;;;18.66;62.43;100665.69;10351444;28;20432;-64
2023/09/14 01:18:51;;;;;;;2.40;1.13;;;;;;;18.71;60.81;100651.69;10305599;28;20223;-64
2023/09/14 01:24:24;;;;;;;2.28;1.20;;;;;;;18.68;60.92;100655.56;10294070;28;20050;-65
2023/09/14 01:29:26;;;;;;;5.43;1.58;;;;;;;18.56;60.41;100646.13;10296064;28;20686;-66
2023/09/14 01:34:28;;;;;;;2.17;0.75;;;;;;;18.63;59.88;100660.63;10299072;28;20046;-65
2023/09/14 01:39:31;;;;;;;1.75;1.05;;;;;;;18.57;60.22;100664.00;10306191;28;20650;-65
2023/09/14 01:44:33;;;;;;;3.03;1.83;;;;;;;18.54;60.37;100665.16;10302568;28;20057;-64
2023/09/14 01:49:35;;;;;;;2.30;1.58;;;;;;;18.50;60.70;100663.78;10303183;28;20070;-63
2023/09/14 01:54:37;;;;;;;4.03;1.17;;;;;;;18.50;60.42;100665.66;10303343;28;20062;-64
2023/09/14 01:59:38;;;;;;;2.60;1.17;;;;;;;18.38;60.62;100663.25;10304204;28;20512;-65
2023/09/14 02:04:41;;;;;;;2.42;1.20;;;;;;;18.23;61.31;100661.38;10303358;28;20050;-64
2023/09/14 02:09:43;;;;;;;3.15;1.13;;;;;;;18.23;60.80;100654.13;10305255;28;20376;-65
2023/09/14 02:14:44;;;;;;;2.53;1.00;;;;;;;18.17;61.09;100670.94;10314539;28;20704;-65
2023/09/14 02:19:46;;;;;;;1.70;1.02;;;;;;;18.18;62.04;100670.78;10299903;28;20064;-66
2023/09/14 02:24:47;;;;;;;3.35;1.65;;;;;;;18.19;61.37;100672.50;10298193;28;20057;-64
2023/09/14 02:29:53;;;;;;;3.05;1.20;;;;;;;18.16;61.65;100666.56;10297008;28;20979;-64
2023/09/14 02:34:54;;;;;;;4.03;1.38;;;;;;;18.13;61.72;100680.34;10314188;28;20053;-65
2023/09/14 02:39:56;;;;;;;4.57;1.30;;;;;;;18.11;61.68;100680.53;10297931;28;20057;-64
2023/09/14 02:44:57;;;;;;;3.70;1.20;;;;;;;18.10;61.59;100686.06;10298739;28;20144;-64
2023/09/14 02:49:59;;;;;;;3.55;1.15;;;;;;;18.08;61.53;100688.09;10298135;28;20057;-65
2023/09/14 02:55:00;;;;;;;3.53;1.52;;;;;;;18.04;61.48;100687.56;10312782;28;20081;-65
2023/09/14 03:00:06;;;;;;;3.22;1.20;;;;;;;17.99;61.89;100700.69;10297441;28;20524;-65
2023/09/14 03:05:09;;;;;;;2.55;1.55;;;;;;;17.85;62.04;100694.03;10298224;28;20603;-66
2023/09/14 03:10:10;;;;;;;3.33;1.50;;;;;;;17.72;61.98;100693.59;10297399;28;20496;-65
2023/09/14 03:15:12;;;;;;;3.83;1.33;;;;;;;17.76;62.24;100697.66;10302470;28;20144;-65
2023/09/14 03:20:14;;;;;;;3.13;1.48;;;;;;;17.80;62.52;100707.09;10340102;28;20412;-66
2023/09/14 03:25:15;;;;;;;2.42;1.30;;;;;;;17.71;62.81;100708.91;10326753;28;20468;-66
2023/09/14 03:30:17;;;;;;;2.15;1.38;;;;;;;17.70;62.86;100707.22;10340454;28;20096;-66
2023/09/14 03:35:18;;;;;;;2.70;1.85;;;;;;;17.66;63.13;100717.44;10340955;28;20478;-65
2023/09/14 03:40:20;;;;;;;2.90;1.25;;;;;;;17.70;63.67;100706.38;10341894;28;20053;-64
2023/09/14 03:45:21;;;;;;;3.35;1.75;;;;;;;17.80;63.20;100712.50;10340692;28;20077;-63
2023/09/14 03:50:23;;;;;;;2.92;1.60;;;;;;;17.79;63.40;100716.19;10320459;28;20393;-64
2023/09/14 03:55:24;;;;;;;6.10;1.70;;;;;;;17.70;63.88;100717.13;10339249;28;20049;-64
2023/09/14 04:00:26;;;;;;;3.03;1.23;;;;;;;17.63;63.94;100698.94;10341976;28;20365;-67
2023/09/14 04:05:28;;;;;;;4.75;1.17;;;;;;;17.74;62.96;100713.97;10341491;28;20053;-66
2023/09/14 04:10:30;;;;;;;3.35;1.67;;;;;;;17.77;63.00;100718.19;10333542;28;20134;-66
2023/09/14 04:15:31;;;;;;;5.38;1.63;;;;;;;17.71;63.48;100724.22;10298642;28;20524;-66
2023/09/14 04:20:33;;;;;;;7.25;1.80;;;;;;;17.67;63.96;100723.69;10297516;28;20054;-66
2023/09/14 04:25:36;;;;;;;2.55;1.73;;;;;;;17.64;63.36;100732.94;10298060;28;20043;-66
2023/09/14 04:30:51;;;;;;;2.92;1.23;;;;;;;17.51;63.61;100719.03;10297834;28;20061;-67
2023/09/14 04:35:59;;;;;;;4.10;2.00;;;;;;;17.55;63.88;100731.19;10296428;28;20108;-67
2023/09/14 04:41:04;;;;;;;2.85;1.48;;;;;;;17.47;64.07;100733.81;10297760;28;20419;-66
2023/09/14 04:46:05;;;;;;;3.45;1.75;;;;;;;17.40;64.08;100732.72;10300763;28;20203;-67
2023/09/14 04:51:07;;;;;;;2.85;1.30;;;;;;;17.42;65.33;100741.50;10299314;28;20053;-65
2023/09/14 04:56:09;;;;;;;3.60;1.80;;;;;;;17.35;65.10;100735.91;10298031;28;20054;-65
2023/09/14 05:01:11;;;;;;;4.28;2.00;;;;;;;17.30;64.75;100735.53;10299980;28;20050;-66
2023/09/14 05:06:12;;;;;;;3.45;1.52;;;;;;;17.24;66.27;100734.31;10295577;28;20423;-70
2023/09/14 05:11:14;;;;;;;5.03;1.75;;;;;;;17.28;65.10;100745.63;10300819;28;20061;-70
2023/09/14 05:16:15;;;;;;;4.25;1.92;;;;;;;17.28;66.06;100751.00;10304288;28;20108;-66
2023/09/14 05:21:17;;;;;;;4.53;2.20;;;;;;;17.25;65.73;100740.50;10303969;28;20046;-66
2023/09/14 05:26:19;;;;;;;3.28;2.10;;;;;;;17.23;65.69;100743.38;10303723;28;20057;-65
2023/09/14 05:31:21;;;;;;;3.38;1.88;;;;;;;17.27;65.99;100743.91;10307540;28;20054;-65
2023/09/14 05:36:22;;;;;;;5.60;2.10;;;;;;;17.22;66.04;100752.47;10299757;28;20457;-68
2023/09/14 05:41:24;;;;;;;3.17;1.83;;;;;;;17.21;66.29;100753.44;10301886;28;20845;-66
2023/09/14 05:46:25;;;;;;;3.95;2.30;;;;;;;17.20;66.19;100754.44;10305573;28;20507;-67
2023/09/14 05:51:28;;;;;;;3.25;2.00;;;;;;;17.17;67.79;100754.75;10303706;28;20119;-64
2023/09/14 05:56:30;;;;;;;3.80;2.00;;;;;;;17.28;67.99;100767.97;10298955;28;20064;-66
2023/09/14 06:01:31;;;;;;;3.75;1.95;;;;;;;17.35;67.12;100761.97;10304241;28;20053;-64
2023/09/14 06:06:33;;;;;;;3.30;2.00;;;;;;;17.35;66.53;100770.03;10306822;28;20053;-66
2023/09/14 06:11:35;;;;;;;3.20;2.08;;;;;;;17.36;68.43;100758.28;10308510;28;20657;-69
2023/09/14 06:16:36;;;;;;;5.20;2.33;;;;;;;17.56;66.39;100775.91;10304830;28;20459;-66
2023/09/14 06:21:38;;;;;;;4.40;2.20;;;;;;;17.65;66.79;100769.63;10305729;28;20315;-65
2023/09/14 06:26:39;;;;;;;5.15;2.63;;;;;;;17.88;66.77;100785.25;10287850;28;20054;-66
2023/09/14 06:31:41;;;;;;;4.85;2.42;;;;;;;17.90;65.30;100775.19;10308269;28;20053;-66
2023/09/14 06:36:43;;;;;;;3.90;2.95;;;;;;;18.04;65.30;100783.69;10337657;28;20133;-66
2023/09/14 06:41:44;;;;;;;5.07;2.58;;;;;;;18.11;64.97;100779.38;10339879;28;20546;-66
2023/09/14 06:46:46;;;;;;;4.65;2.00;;;;;;;18.26;65.02;100783.13;10337731;28;20049;-66
2023/09/14 06:51:48;;;;;;;5.70;2.03;;;;;;;18.37;65.07;100780.19;10339606;28;20698;-66
2023/09/14 06:56:50;;;;;;;2.55;1.95;;;;;;;18.62;64.45;100787.50;10337535;28;20527;-66
2023/09/14 07:01:51;;;;;;;5.53;2.33;;;;;;;18.69;62.90;100769.66;10304363;28;20080;-65
2023/09/14 07:06:53;;;;;;;5.15;2.22;;;;;;;18.72;63.06;100772.88;10299573;28;20080;-65
2023/09/14 07:11:54;;;;;;;3.92;2.15;;;;;;;18.96;63.61;100782.06;10293011;28;20196;-66
2023/09/14 07:16:56;;;;;;;5.43;2.40;;;;;;;19.08;62.29;100783.44;10299439;28;20049;-67
2023/09/14 07:21:57;;;;;;;4.57;2.45;;;;;;;19.29;61.98;100810.94;10295158;28;20641;-66
2023/09/14 07:26:59;;;;;;;3.92;1.95;;;;;;;19.31;61.47;100808.94;10306679;28;20054;-65
2023/09/14 07:32:02;;;;;;;6.50;2.03;;;;;;;19.14;60.74;100792.72;10308676;28;20054;-65
2023/09/14 07:37:04;;;;;;;2.88;1.58;;;;;;;19.43;61.59;100804.88;10300274;28;20056;-65
2023/09/14 07:42:05;;;;;;;3.08;2.03;;;;;;;19.45;60.14;100789.34;10302037;28;20054;-66
2023/09/14 07:47:07;;;;;;;3.15;2.13;;;;;;;19.47;59.67;100802.69;10303719;28;20057;-65
2023/09/14 07:52:09;;;;;;;3.78;2.25;;;;;;;19.47;60.57;100808.09;10302206;28;20396;-65
2023/09/14 07:57:10;;;;;;;4.85;2.00;;;;;;;19.65;60.52;100822.28;10303396;28;20065;-65
2023/09/14 08:02:12;;;;;;;8.70;2.78;;;;;;;19.64;58.64;100815.19;10300673;28;20046;-64
2023/09/14 08:07:15;;;;;;;3.70;2.00;;;;;;;19.75;59.98;100805.88;10302654;28;20524;-67
2023/09/14 08:12:17;;;;;;;3.58;1.73;;;;;;;20.07;58.12;100821.25;10303340;28;20100;-66
2023/09/14 08:17:19;;;;;;;3.40;1.83;;;;;;;20.16;56.97;100819.34;10303849;28;20061;-66
2023/09/14 08:22:22;;;;;;;3.85;1.95;;;;;;;20.38;56.55;100812.38;10304665;28;20530;-64
2023/09/14 08:27:24;;;;;;;3.53;1.55;;;;;;;20.66;56.80;100831.72;10300645;28;20858;-64
2023/09/14 08:32:25;;;;;;;5.03;1.60;;;;;;;20.88;55.20;100823.84;10302165;28;20076;-64
2023/09/14 08:37:27;;;;;;;3.38;1.17;;;;;;;21.05;55.10;100821.91;10298947;28;20488;-69
2023/09/14 08:42:29;;;;;;;4.97;1.27;;;;;;;21.16;54.17;100831.47;10305330;28;20072;-64
2023/09/14 08:47:30;;;;;;;4.38;1.00;;;;;;;21.33;52.60;100827.63;10307498;28;20050;-65
2023/09/14 08:52:34;;;;;;;3.13;1.00;;;;;;;21.54;51.95;100812.59;10306697;28;20057;-65
2023/09/14 08:57:36;;;;;;;;;;;;;;;21.73;50.79;100826.69;10302679;28;20879;-66
2023/09/14 09:02:38;;;;;;;4.47;1.15;;;;;;;21.77;50.96;100826.13;10307331;28;20041;-65
2023/09/14 09:07:40;;;;;;;3.75;1.15;;;;;;;21.86;49.12;100811.47;10303272;28;20176;-66
2023/09/14 09:12:41;;;;;;;5.13;1.85;;;;;;;21.98;50.11;100813.72;10306431;28;20270;-65
2023/09/14 09:17:44;;;;;;;4.22;1.25;;;;;;;22.25;48.19;100817.69;10306168;28;20054;-66
2023/09/14 09:22:46;;;;;;;3.03;1.00;;;;;;;22.25;47.49;100810.38;10308485;28;20058;-65
2023/09/14 09:27:48;;;;;;;4.40;1.23;;;;;;;21.93;46.17;100810.72;10314573;28;20117;-66
2023/09/14 09:32:54;;;;;;;4.43;1.35;;;;;;;22.12;47.68;100815.63;10305108;28;20058;-64
2023/09/14 09:38:00;;;;;;;3.55;1.38;;;;;;;22.16;46.55;100819.66;10304534;28;20496;-66
2023/09/14 09:43:03;;;;;;;3.97;1.30;;;;;;;22.25;48.35;100826.66;10305228;28;20274;-66
2023/09/14 09:48:06;;;;;;;2.88;1.05;;;;;;;22.47;48.72;100824.06;10296431;28;20050;-66
2023/09/14 09:53:10;;;;;;;2.63;1.10;;;;;;;22.74;46.69;100813.53;10304477;28;20148;-65
2023/09/14 09:58:16;;;;;;;4.38;1.05;;;;;;;23.02;46.53;100819.09;10301095;28;20576;-65
2023/09/14 10:03:23;;;;;;;4.20;1.48;;;;;;;23.32;46.06;100788.31;10303339;28;20136;-65
2023/09/14 10:08:24;;;;;;;5.88;1.67;;;;;;;23.68;45.21;100787.38;10304642;28;21147;-64
2023/09/14 10:13:28;;;;;;;4.80;1.25;;;;;;;24.32;43.49;100787.19;10301318;28;20057;-65
2023/09/14 10:18:32;;;;;;;3.88;1.20;;;;;;;24.37;42.29;100796.66;10304107;28;20065;-65
2023/09/14 10:23:34;;;;;;;3.65;1.20;;;;;;;24.44;44.03;100797.50;10305205;28;20054;-64
2023/09/14 10:28:38;;;;;;;2.23;0.70;;;;;;;24.56;41.75;100779.56;10302961;28;20141;-64
2023/09/14 10:33:49;;;;;;;4.30;1.08;;;;;;;24.89;41.45;100784.28;10306626;28;20552;-64
2023/09/14 10:38:50;;;;;;;2.53;0.73;;;;;;;24.06;41.58;100778.88;10297997;28;20466;-65
2023/09/14 10:43:53;;;;;;;4.72;1.40;;;;;;;24.04;42.03;100770.09;10299739;28;20057;-63
2023/09/14 10:48:56;;;;;;;;;;;;;;;23.93;42.80;100780.47;10303410;28;20117;-65
2023/09/14 10:54:00;;;;;;;4.05;1.38;;;;;;;24.30;42.02;100775.66;10300378;28;19955;-65
2023/09/14 10:59:10;;;;;;;3.80;1.60;;;;;;;24.92;39.39;100777.59;10301751;28;20058;-64
2023/09/14 11:04:14;;;;;;;2.63;0.68;;;;;;;25.35;38.25;100767.22;10299771;28;20365;-64
2023/09/14 11:09:17;;;;;;;2.83;0.68;;;;;;;25.82;38.35;100752.75;10294169;28;20054;-64
2023/09/14 11:14:22;;;;;;;1.92;1.00;;;;;;;26.03;36.64;100736.16;10298270;28;20050;-65
2023/09/14 11:19:29;;;;;;;4.00;1.02;;;;;;;26.54;35.75;100747.28;10297748;28;20092;-65
2023/09/14 11:24:48;;;;;;;2.53;0.90;;;;;;;26.74;36.40;100722.66;10308045;28;20345;-65
2023/09/14 11:29:51;;;;;;;3.75;0.70;;;;;;;26.40;36.20;100741.06;10299424;28;20061;-63
2023/09/14 11:34:56;;;;;;;4.72;1.17;;;;;;;26.24;36.62;100736.91;10298446;28;20084;-64
2023/09/14 11:40:06;;;;;;;2.40;0.90;;;;;;;26.95;36.56;100740.59;10293147;28;20054;-65
2023/09/14 11:45:11;;;;;;;2.45;0.60;;;;;;;27.35;34.58;100726.66;10297879;28;20523;-65
2023/09/14 11:50:14;;;;;;;4.07;0.80;;;;;;;27.09;35.46;100723.03;10298509;28;20395;-64
2023/09/14 11:55:19;;;;;;;2.45;0.90;;;;;;;27.03;35.01;100732.13;10293938;28;20050;-65
2023/09/14 12:00:21;;;;;;;4.57;1.08;;;;;;;27.79;33.85;100729.38;10296085;28;20575;-64
2023/09/14 12:05:23;;;;;;;2.90;0.90;;;;;;;28.70;32.34;100716.75;10295669;28;20050;-65
2023/09/14 12:10:25;;;;;;;2.22;0.85;;;;;;;28.99;32.25;100730.69;10301398;28;20049;-65
2023/09/14 12:15:29;;;;;;;3.13;1.00;;;;;;;29.21;31.83;100725.50;10298262;28;20060;-65
2023/09/14 12:20:34;;;;;;;3.67;0.80;;;;;;;29.45;30.82;100703.59;10326825;28;20075;-66
2023/09/14 12:25:38;;;;;;;6.07;0.90;;;;;;;29.64;30.77;100730.91;10347063;28;20065;-66
2023/09/14 12:30:40;;;;;;;1.25;0.45;;;;;;;29.84;31.67;100709.44;10348597;28;20205;-65
2023/09/14 12:35:42;;;;;;;3.63;0.80;;;;;;;30.71;29.18;100717.81;10336540;28;20392;-64
2023/09/14 12:40:44;;;;;;;;;;;;;;;30.75;27.99;100716.22;10343966;28;20625;-65
2023/09/14 12:45:45;;;;;;;2.87;1.00;;;;;;;31.43;27.41;100702.53;10349987;28;19936;-64
2023/09/14 12:50:48;;;;;;;2.08;0.73;;;;;;;31.51;28.33;100705.69;10349751;28;20879;-65
2023/09/14 12:55:50;;;;;;;2.67;1.08;;;;;;;30.49;28.66;100702.00;10348735;28;20188;-65
2023/09/14 13:00:54;;;;;;;3.38;2.10;;;;;;;29.36;31.07;100700.34;10350599;28;20590;-64
2023/09/14 13:05:58;;;;;;;2.30;0.50;;;;;;;28.20;33.43;100706.88;10330102;28;20096;-62
2023/09/14 13:10:59;;;;;;;2.42;0.68;;;;;;;28.94;32.89;100689.44;10349825;28;20533;-64
2023/09/14 13:16:01;;;;;;;1.57;0.43;;;;;;;29.33;29.41;100686.31;10346250;28;20053;-64
2023/09/14 13:21:06;;;;;;;1.47;0.47;;;;;;;29.41;30.31;100680.44;10346294;28;20053;-65
2023/09/14 13:26:07;;;;;;;1.10;0.38;;;;;;;29.37;30.03;100682.03;10334550;28;20058;-65
2023/09/14 13:31:11;;;;;;;2.00;0.60;;;;;;;29.19;30.37;100669.22;10346388;28;20787;-64
2023/09/14 13:36:13;;;;;;;2.85;1.08;;;;;;;28.97;32.23;100655.25;10342593;28;20357;-64
2023/09/14 13:41:14;;;;;;;4.45;0.90;;;;;;;28.53;33.43;100680.94;10340335;28;20639;-64
2023/09/14 13:46:16;;;;;;;2.00;1.08;;;;;;;27.66;34.11;100676.50;10324952;28;20064;-65
2023/09/14 13:51:17;;;;;;;2.30;0.73;;;;;;;27.08;34.91;100672.22;10338280;28;20497;-63
2023/09/14 13:56:19;;;;;;;4.03;2.30;;;;;;;27.09;35.02;100656.66;10343065;28;20444;-64
2023/09/14 14:01:20;;;;;;;2.33;0.90;;;;;;;26.79;33.80;100630.00;10341979;28;21109;-64
2023/09/14 14:06:24;;;;;;;2.45;1.10;;;;;;;26.52;34.98;100642.97;10344612;28;20080;-65
2023/09/14 14:11:25;;;;;;;2.13;0.80;;;;;;;26.44;35.99;100630.41;10324500;28;20057;-65
2023/09/14 14:16:27;;;;;;;2.65;0.77;;;;;;;26.01;35.85;100631.06;10328086;28;20057;-68
2023/09/14 14:21:29;;;;;;;1.48;0.60;;;;;;;25.82;36.13;100628.19;10340898;28;20507;-65
2023/09/14 14:26:31;;;;;;;3.72;0.80;;;;;;;25.43;36.86;100615.47;10326325;28;20061;-65
2023/09/14 14:31:33;;;;;;;3.38;0.70;;;;;;;25.37;37.61;100611.72;10342574;28;20057;-64
2023/09/14 14:36:35;;;;;;;2.42;0.47;;;;;;;25.30;37.42;100625.34;10340307;28;20172;-64
2023/09/14 14:41:37;;;;;;;1.85;1.13;;;;;;;25.15;38.01;100608.38;10338150;28;20052;-65
2023/09/14 14:46:43;;;;;;;2.78;0.85;;;;;;;25.23;38.18;100619.03;10307869;28;20058;-64
2023/09/14 14:51:44;;;;;;;3.85;0.82;;;;;;;25.19;38.62;100612.34;10303172;28;20054;-64
2023/09/14 14:56:46;;;;;;;3.35;0.80;;;;;;;25.04;38.49;100618.88;10301236;28;20049;-63
2023/09/14 15:01:48;;;;;;;1.52;0.50;;;;;;;24.58;40.18;100599.75;10301992;28;20053;-63
2023/09/14 15:06:50;;;;;;;2.50;0.82;;;;;;;24.49;40.31;100610.00;10298669;28;20078;-65
2023/09/14 15:11:51;;;;;;;2.55;0.70;;;;;;;24.41;40.20;100613.75;10313721;28;20162;-64
2023/09/14 15:16:53;;;;;;;2.25;0.80;;;;;;;24.23;40.24;100611.63;10299755;28;20100;-65
2023/09/14 15:21:54;;;;;;;3.42;0.90;;;;;;;24.12;39.70;100614.91;10298800;28;20080;-66
2023/09/14 15:26:57;;;;;;;1.40;0.60;;;;;;;23.95;41.21;100612.56;10312695;28;20490;-66
2023/09/14 15:31:59;;;;;;;;;;;;;;;23.83;40.91;100614.97;10299668;28;20751;-63
2023/09/14 15:37:00;;;;;;;2.45;0.80;;;;;;;23.82;41.01;100604.31;10297122;28;19929;-63
2023/09/14 15:42:03;;;;;;;3.63;1.45;;;;;;;23.77;40.39;100606.81;10293857;28;20577;-69
2023/09/14 15:47:06;;;;;;;3.22;0.85;;;;;;;23.57;41.40;100599.41;10296014;28;20049;-66
2023/09/14 15:52:08;;;;;;;1.60;0.80;;;;;;;23.45;42.24;100612.72;10291455;28;20038;-63
2023/09/14 15:57:10;;;;;;;1.60;0.70;;;;;;;23.40;42.71;100612.44;10296944;28;21999;-62
2023/09/14 16:02:14;;;;;;;1.67;0.80;;;;;;;23.40;41.40;100619.78;10297121;28;20136;-64
2023/09/14 16:07:15;;;;;;;3.80;1.40;;;;;;;23.16;43.06;100605.59;10325106;28;20045;-64
2023/09/14 16:12:17;;;;;;;3.20;0.90;;;;;;;23.20;42.43;100604.19;10298981;28;20053;-64
2023/09/14 16:17:18;;;;;;;2.40;0.95;;;;;;;23.13;42.54;100600.56;10298556;28;20115;-64
2023/09/14 16:22:20;;;;;;;2.55;0.77;;;;;;;23.10;42.78;100590.09;10296107;28;20042;-64
2023/09/14 16:27:22;;;;;;;3.42;1.00;;;;;;;23.10;43.42;100592.81;10287008;28;20786;-66
2023/09/14 16:32:24;;;;;;;4.25;0.77;;;;;;;22.98;43.36;100592.50;10306980;28;20770;-65
2023/09/14 16:37:26;;;;;;;1.90;0.60;;;;;;;22.82;42.51;100584.63;10293405;28;20054;-65
2023/09/14 16:42:28;;;;;;;1.73;0.85;;;;;;;22.78;43.38;100593.16;10297431;28;20077;-65
2023/09/14 16:47:29;;;;;;;3.53;1.05;;;;;;;22.69;44.07;100585.38;10295487;28;20454;-65
2023/09/14 16:52:31;;;;;;;4.10;1.00;;;;;;;22.71;44.20;100586.00;10296964;28;20530;-65
2023/09/14 16:57:32;;;;;;;1.70;1.13;;;;;;;22.57;44.56;100591.31;10297499;28;20147;-64
2023/09/14 17:02:34;;;;;;;2.65;1.70;;;;;;;22.55;44.04;100587.97;10295852;28;20077;-65
2023/09/14 17:07:39;;;;;;;1.70;1.08;;;;;;;22.46;45.77;100588.28;10296531;28;20541;-66
2023/09/14 17:12:40;;;;;;;2.15;0.80;;;;;;;22.46;45.38;100591.84;10304006;28;20041;-66
2023/09/14 17:17:42;;;;;;;3.25;0.90;;;;;;;22.40;45.53;100589.91;10302462;28;20497;-70
2023/09/14 17:22:43;;;;;;;1.65;0.80;;;;;;;22.30;45.52;100595.59;10351066;28;20147;-66
2023/09/14 17:27:45;;;;;;;4.15;1.27;;;;;;;22.23;45.12;100591.97;10352676;28;20072;-65
2023/09/14 17:32:47;;;;;;;1.88;0.80;;;;;;;22.14;46.77;100593.97;10349911;28;20046;-65
2023/09/14 17:37:49;;;;;;;2.53;1.02;;;;;;;22.12;45.98;100603.34;10350562;28;20064;-65
2023/09/14 17:42:50;;;;;;;5.38;1.13;;;;;;;22.03;46.07;100599.91;10334018;28;20133;-66
2023/09/14 17:47:52;;;;;;;2.20;1.20;;;;;;;21.92;47.31;100586.81;10345138;28;20065;-65
2023/09/14 17:52:54;;;;;;;4.05;1.42;;;;;;;21.57;46.68;100590.13;10344795;28;20145;-65
2023/09/14 17:57:55;;;;;;;2.25;0.82;;;;;;;21.65;46.94;100597.34;10349989;28;20068;-64
2023/09/14 18:02:57;;;;;;;4.18;1.27;;;;;;;21.62;47.48;100603.09;10348428;28;21172;-63
2023/09/14 18:07:59;;;;;;;3.72;1.00;;;;;;;21.58;46.85;100601.81;10331797;28;20491;-65
2023/09/14 18:13:01;;;;;;;4.38;1.30;;;;;;;21.46;47.05;100594.13;10346166;28;20065;-65
2023/09/14 18:18:03;;;;;;;3.50;1.40;;;;;;;21.33;47.83;100613.75;10326622;28;20483;-64
2023/09/14 18:23:04;;;;;;;3.88;1.60;;;;;;;21.14;47.60;100609.69;10345868;28;20049;-64
2023/09/14 18:28:08;;;;;;;3.10;1.52;;;;;;;21.15;48.54;100614.09;10330400;28;20500;-64
2023/09/14 18:33:09;;;;;;;;;;;;;;;21.11;47.65;100612.78;10345602;28;20045;-64
2023/09/14 18:38:11;;;;;;;2.05;1.08;;;;;;;20.99;48.01;100615.06;10328266;28;20495;-65
2023/09/14 18:43:13;;;;;;;2.83;1.17;;;;;;;20.99;48.19;100617.78;10346437;28;20490;-65
2023/09/14 18:48:15;;;;;;;2.03;1.00;;;;;;;20.84;47.95;100612.34;10327431;28;20286;-64
2023/09/14 18:53:16;;;;;;;3.15;1.10;;;;;;;20.79;49.09;100614.75;10346325;28;20054;-64
2023/09/14 18:58:18;;;;;;;3.63;1.35;;;;;;;20.80;48.39;100615.59;10349526;28;20051;-65
2023/09/14 19:03:39;;;;;;;3.45;1.00;;;;;;;20.61;48.80;100623.16;10343280;28;20053;-63
2023/09/14 19:08:41;;;;;;;2.90;1.13;;;;;;;20.57;49.32;100626.41;10343595;28;20393;-64
2023/09/14 19:13:43;;;;;;;3.38;1.20;;;;;;;20.44;49.71;100627.81;10334287;28;20053;-65
2023/09/14 19:18:45;;;;;;;2.67;1.10;;;;;;;20.47;49.71;100624.75;10341438;28;20049;-63
2023/09/14 19:23:47;;;;;;;3.33;1.45;;;;;;;20.24;49.47;100592.31;10342892;28;20052;-64
2023/09/14 19:28:48;;;;;;;6.38;1.70;;;;;;;20.32;50.54;100623.84;10342041;28;20163;-65
2023/09/14 19:33:50;;;;;;;2.22;1.17;;;;;;;20.14;49.98;100622.25;10340714;28;20117;-64
2023/09/14 19:38:51;;;;;;;3.63;1.27;;;;;;;19.98;49.93;100643.94;10340095;28;20239;-64
2023/09/14 19:43:53;;;;;;;2.13;1.25;;;;;;;19.96;50.49;100630.59;10344081;28;20638;-71
2023/09/14 19:48:54;;;;;;;2.25;1.27;;;;;;;19.96;52.12;100632.47;10328011;28;20053;-64
2023/09/14 19:53:57;;;;;;;2.30;1.20;;;;;;;19.89;53.00;100640.44;10338812;28;20531;-65
2023/09/14 19:58:58;;;;;;;3.53;1.30;;;;;;;19.90;51.53;100636.72;10342073;28;20068;-64
2023/09/14 20:04:00;;;;;;;2.22;1.27;;;;;;;19.86;51.17;100640.81;10341772;28;20057;-63
2023/09/14 20:09:04;;;;;;;5.00;1.80;;;;;;;19.59;51.59;100628.53;10292689;28;20207;-63
2023/09/14 20:14:06;;;;;;;4.07;1.45;;;;;;;19.64;51.37;100622.63;10294931;28;20065;-62
2023/09/14 20:19:07;;;;;;;2.47;1.27;;;;;;;19.47;51.58;100643.41;10298859;28;20094;-65
2023/09/14 20:24:09;;;;;;;2.42;1.63;;;;;;;19.11;54.73;100633.88;10299850;28;20564;-64
2023/09/14 20:29:11;;;;;;;2.90;1.30;;;;;;;19.24;53.58;100631.47;10300299;28;20061;-63
2023/09/14 20:34:13;;;;;;;4.53;1.40;;;;;;;19.02;52.86;100622.25;10317254;28;20395;-63
2023/09/14 20:39:15;;;;;;;2.55;1.13;;;;;;;18.95;55.23;100626.63;10295425;28;20389;-64
2023/09/14 20:44:16;;;;;;;3.88;1.20;;;;;;;19.13;54.09;100617.50;10306281;28;20048;-65
2023/09/14 20:49:20;;;;;;;3.25;1.20;;;;;;;19.15;53.79;100620.88;10299108;28;20069;-64
2023/09/14 20:54:23;;;;;;;3.38;1.40;;;;;;;19.05;54.58;100605.72;10307150;28;20061;-65
2023/09/14 20:59:25;;;;;;;3.38;1.20;;;;;;;19.01;53.53;100608.91;10306428;28;20056;-66
2023/09/14 21:10:48;;;;;;;3.33;1.45;;;;;;;19.11;53.41;100603.34;10338145;28;20131;-66
2023/09/14 21:15:50;;;;;;;3.88;1.45;;;;;;;19.04;54.90;100608.59;10339442;28;20559;-65
2023/09/14 21:20:52;;;;;;;3.83;1.60;;;;;;;19.16;54.89;100603.69;10336227;28;20884;-63
2023/09/14 21:25:55;;;;;;;5.13;1.42;;;;;;;18.83;55.17;100536.25;10339360;28;20127;-64
2023/09/14 21:30:57;;;;;;;3.67;1.63;;;;;;;19.17;54.73;100589.16;10329047;28;20058;-64
2023/09/14 21:35:59;;;;;;;3.28;1.33;;;;;;;19.14;54.04;100586.78;10302481;28;20056;-64
2023/09/14 21:41:03;;;;;;;3.50;1.15;;;;;;;19.07;54.47;100597.44;10301419;28;20429;-66
2023/09/14 21:46:06;;;;;;;5.95;1.50;;;;;;;18.94;54.36;100568.28;10297896;28;20046;-65
2023/09/14 21:51:07;;;;;;;4.47;1.47;;;;;;;19.06;55.13;100585.78;10300279;28;20064;-63
2023/09/14 21:56:09;;;;;;;5.13;1.50;;;;;;;19.12;54.26;100591.53;10302098;28;21004;-64
2023/09/14 22:01:10;;;;;;;4.20;1.38;;;;;;;19.01;54.63;100566.59;10300442;28;20099;-64
2023/09/14 22:06:12;;;;;;;2.30;1.10;;;;;;;19.08;53.77;100577.56;10301020;28;20200;-63
2023/09/14 22:11:25;;;;;;;3.00;1.13;;;;;;;18.98;54.22;100579.59;10299870;28;20042;-64
2023/09/14 22:16:27;;;;;;;4.05;1.73;;;;;;;18.95;54.33;100575.38;10300007;28;20515;-64
2023/09/14 22:21:28;;;;;;;3.60;1.50;;;;;;;18.97;54.28;100572.50;10295744;28;20651;-64
2023/09/14 22:26:33;;;;;;;4.15;1.50;;;;;;;18.91;54.39;100571.31;10298553;28;20049;-63
2023/09/14 22:31:35;;;;;;;3.58;1.42;;;;;;;18.82;53.81;100562.38;10296876;28;20065;-65
2023/09/14 22:36:36;;;;;;;2.40;1.30;;;;;;;18.87;54.57;100569.97;10299523;28;20053;-64
2023/09/14 22:41:38;;;;;;;3.80;1.50;;;;;;;18.84;55.06;100567.59;10298600;28;20080;-63
2023/09/14 22:46:41;;;;;;;4.28;1.33;;;;;;;18.72;54.49;100556.31;10299916;28;20057;-64
2023/09/14 22:51:42;;;;;;;2.83;1.50;;;;;;;18.73;54.66;100558.84;10299787;28;20052;-64
2023/09/14 22:56:44;;;;;;;3.10;1.15;;;;;;;18.72;55.25;100556.31;10300346;28;21273;-65
2023/09/14 23:01:45;;;;;;;3.40;1.30;;;;;;;18.69;55.13;100552.09;10299792;28;20744;-64
2023/09/14 23:06:46;;;;;;;3.55;1.40;;;;;;;18.57;56.08;100553.47;10296367;28;20050;-64
2023/09/14 23:11:51;;;;;;;2.45;1.48;;;;;;;18.49;55.42;100534.59;10302199;28;20531;-65
2023/09/14 23:16:54;;;;;;;3.20;1.75;;;;;;;18.54;55.22;100548.41;10344056;28;20117;-65
2023/09/14 23:21:57;;;;;;;5.05;1.50;;;;;;;18.52;55.12;100535.06;10335270;28;20049;-65